sensor_id;sensor_type;location;lat;lon;timestamp;temperature;humidity
16174;DHT22;14031;50.158;8.626;2022-07-22T00:02:25;21.80;99.90
16174;DHT22;14031;50.158;8.626;2022-07-22T00:04:52;21.80;99.90
16174;DHT22;14031;50.158;8.626;2022-07-22T00:07:19;21.80;99.90
16174;DHT22;14031;50.158;8.626;2022-07-22T00:09:45;21.70;99.90
16174;DHT22;14031;50.158;8.626;2022-07-22T00:12:12;21.70;99.90
16174;DHT22;14031;50.158;8.626;2022-07-22T00:14:41;21.70;99.90
16174;DHT22;14031;50.158;8.626;2022-07-22T00:17:09;21.60;99.90
16174;DHT22;14031;50.158;8.626;2022-07-22T00:19:35;21.60;99.90
16174;DHT22;14031;50.158;8.626;2022-07-22T00:22:03;21.50;99.90
16174;DHT22;14031;50.158;8.626;2022-07-22T00:24:29;21.40;99.90
16174;DHT22;14031;50.158;8.626;2022-07-22T00:26:56;21.40;99.90
16174;DHT22;14031;50.158;8.626;2022-07-22T00:29:23;21.40;99.90
16174;DHT22;14031;50.158;8.626;2022-07-22T00:31:51;21.40;99.90
16174;DHT22;14031;50.158;8.626;2022-07-22T00:34:18;21.40;99.90
16174;DHT22;14031;50.158;8.626;2022-07-22T00:36:45;21.30;99.90
16174;DHT22;14031;50.158;8.626;2022-07-22T00:39:12;21.30;99.90
16174;DHT22;14031;50.158;8.626;2022-07-22T00:41:40;21.30;99.90
16174;DHT22;14031;50.158;8.626;2022-07-22T00:44:08;21.30;99.90
16174;DHT22;14031;50.158;8.626;2022-07-22T00:46:36;21.30;99.90
16174;DHT22;14031;50.158;8.626;2022-07-22T00:49:06;21.30;99.90
16174;DHT22;14031;50.158;8.626;2022-07-22T00:51:33;21.20;99.90
16174;DHT22;14031;50.158;8.626;2022-07-22T00:54:01;21.20;99.90
16174;DHT22;14031;50.158;8.626;2022-07-22T00:56:29;21.20;99.90
16174;DHT22;14031;50.158;8.626;2022-07-22T00:59:00;21.20;99.90
16174;DHT22;14031;50.158;8.626;2022-07-22T01:01:27;21.20;99.90
16174;DHT22;14031;50.158;8.626;2022-07-22T01:03:54;21.20;99.90
16174;DHT22;14031;50.158;8.626;2022-07-22T01:06:23;21.20;99.90
16174;DHT22;14031;50.158;8.626;2022-07-22T01:08:49;21.20;99.90
16174;DHT22;14031;50.158;8.626;2022-07-22T01:11:18;21.20;99.90
16174;DHT22;14031;50.158;8.626;2022-07-22T01:13:47;21.20;99.90
16174;DHT22;14031;50.158;8.626;2022-07-22T01:16:15;21.10;99.90
16174;DHT22;14031;50.158;8.626;2022-07-22T01:18:43;21.10;99.90
16174;DHT22;14031;50.158;8.626;2022-07-22T01:21:13;21.00;99.90
16174;DHT22;14031;50.158;8.626;2022-07-22T01:23:40;21.00;99.90
16174;DHT22;14031;50.158;8.626;2022-07-22T01:26:07;21.00;99.90
16174;DHT22;14031;50.158;8.626;2022-07-22T01:28:35;20.90;99.90
16174;DHT22;14031;50.158;8.626;2022-07-22T01:31:02;20.90;99.90
16174;DHT22;14031;50.158;8.626;2022-07-22T01:33:29;20.90;99.90
16174;DHT22;14031;50.158;8.626;2022-07-22T01:35:56;20.90;99.90
16174;DHT22;14031;50.158;8.626;2022-07-22T01:38:32;20.90;99.90
16174;DHT22;14031;50.158;8.626;2022-07-22T01:41:00;20.90;99.90
16174;DHT22;14031;50.158;8.626;2022-07-22T01:43:27;20.90;99.90
16174;DHT22;14031;50.158;8.626;2022-07-22T01:45:55;20.80;99.90
16174;DHT22;14031;50.158;8.626;2022-07-22T01:48:22;20.80;99.90
16174;DHT22;14031;50.158;8.626;2022-07-22T01:50:50;20.80;99.90
16174;DHT22;14031;50.158;8.626;2022-07-22T01:53:16;20.70;99.90
16174;DHT22;14031;50.158;8.626;2022-07-22T01:55:45;20.70;99.90
16174;DHT22;14031;50.158;8.626;2022-07-22T01:58:12;20.60;99.90
16174;DHT22;14031;50.158;8.626;2022-07-22T02:00:39;20.60;99.90
16174;DHT22;14031;50.158;8.626;2022-07-22T02:03:06;20.60;99.90
16174;DHT22;14031;50.158;8.626;2022-07-22T02:05:34;20.60;99.90
16174;DHT22;14031;50.158;8.626;2022-07-22T02:08:01;20.60;99.90
16174;DHT22;14031;50.158;8.626;2022-07-22T02:10:28;20.70;99.90
16174;DHT22;14031;50.158;8.626;2022-07-22T02:12:58;20.60;99.90
16174;DHT22;14031;50.158;8.626;2022-07-22T02:15:25;20.60;99.90
16174;DHT22;14031;50.158;8.626;2022-07-22T02:17:52;20.60;99.90
16174;DHT22;14031;50.158;8.626;2022-07-22T02:20:19;20.60;99.90
16174;DHT22;14031;50.158;8.626;2022-07-22T02:22:47;20.60;99.90
16174;DHT22;14031;50.158;8.626;2022-07-22T02:25:13;20.60;99.90
16174;DHT22;14031;50.158;8.626;2022-07-22T02:27:41;20.60;99.90
16174;DHT22;14031;50.158;8.626;2022-07-22T02:30:11;20.60;99.90
16174;DHT22;14031;50.158;8.626;2022-07-22T02:32:38;20.50;99.90
16174;DHT22;14031;50.158;8.626;2022-07-22T02:35:05;20.50;99.90
16174;DHT22;14031;50.158;8.626;2022-07-22T02:37:32;20.40;99.90
16174;DHT22;14031;50.158;8.626;2022-07-22T02:39:59;20.40;99.90
16174;DHT22;14031;50.158;8.626;2022-07-22T02:42:26;20.30;99.90
16174;DHT22;14031;50.158;8.626;2022-07-22T02:44:53;20.30;99.90
16174;DHT22;14031;50.158;8.626;2022-07-22T02:47:21;20.30;99.90
16174;DHT22;14031;50.158;8.626;2022-07-22T02:49:48;20.20;99.90
16174;DHT22;14031;50.158;8.626;2022-07-22T02:52:15;20.20;99.90
16174;DHT22;14031;50.158;8.626;2022-07-22T02:54:41;20.20;99.90
16174;DHT22;14031;50.158;8.626;2022-07-22T02:57:08;20.10;99.90
16174;DHT22;14031;50.158;8.626;2022-07-22T02:59:35;20.20;99.90
16174;DHT22;14031;50.158;8.626;2022-07-22T03:02:03;20.20;99.90
16174;DHT22;14031;50.158;8.626;2022-07-22T03:04:31;20.20;99.90
16174;DHT22;14031;50.158;8.626;2022-07-22T03:06:58;20.20;99.90
16174;DHT22;14031;50.158;8.626;2022-07-22T03:09:24;20.30;99.90
16174;DHT22;14031;50.158;8.626;2022-07-22T03:11:51;20.30;99.90
16174;DHT22;14031;50.158;8.626;2022-07-22T03:14:18;20.40;99.90
16174;DHT22;14031;50.158;8.626;2022-07-22T03:16:45;20.40;99.90
16174;DHT22;14031;50.158;8.626;2022-07-22T03:19:12;20.50;99.90
16174;DHT22;14031;50.158;8.626;2022-07-22T03:21:40;20.50;99.90
16174;DHT22;14031;50.158;8.626;2022-07-22T03:24:07;20.50;99.90
16174;DHT22;14031;50.158;8.626;2022-07-22T03:26:34;20.60;99.90
16174;DHT22;14031;50.158;8.626;2022-07-22T03:29:01;20.50;99.90
16174;DHT22;14031;50.158;8.626;2022-07-22T03:31:28;20.60;99.90
16174;DHT22;14031;50.158;8.626;2022-07-22T03:33:54;20.60;99.90
16174;DHT22;14031;50.158;8.626;2022-07-22T03:36:21;20.60;99.90
16174;DHT22;14031;50.158;8.626;2022-07-22T03:38:49;20.60;99.90
16174;DHT22;14031;50.158;8.626;2022-07-22T03:41:16;20.60;99.90
16174;DHT22;14031;50.158;8.626;2022-07-22T03:43:43;20.60;99.90
16174;DHT22;14031;50.158;8.626;2022-07-22T03:46:10;20.60;99.90
16174;DHT22;14031;50.158;8.626;2022-07-22T03:48:37;20.70;99.90
16174;DHT22;14031;50.158;8.626;2022-07-22T03:51:04;20.70;99.90
16174;DHT22;14031;50.158;8.626;2022-07-22T03:53:31;20.70;99.90
16174;DHT22;14031;50.158;8.626;2022-07-22T03:56:00;20.80;99.90
16174;DHT22;14031;50.158;8.626;2022-07-22T03:58:27;20.70;99.90
16174;DHT22;14031;50.158;8.626;2022-07-22T04:00:55;20.80;99.90
16174;DHT22;14031;50.158;8.626;2022-07-22T04:03:22;20.80;99.90
16174;DHT22;14031;50.158;8.626;2022-07-22T04:05:49;20.80;99.90
16174;DHT22;14031;50.158;8.626;2022-07-22T04:08:16;20.70;99.90
16174;DHT22;14031;50.158;8.626;2022-07-22T04:10:43;20.70;99.90
16174;DHT22;14031;50.158;8.626;2022-07-22T04:13:12;20.80;99.90
16174;DHT22;14031;50.158;8.626;2022-07-22T04:15:39;20.80;99.90
16174;DHT22;14031;50.158;8.626;2022-07-22T04:18:06;20.80;99.90
16174;DHT22;14031;50.158;8.626;2022-07-22T04:20:32;20.80;99.90
16174;DHT22;14031;50.158;8.626;2022-07-22T04:22:59;20.80;99.90
16174;DHT22;14031;50.158;8.626;2022-07-22T04:25:26;20.80;99.90
16174;DHT22;14031;50.158;8.626;2022-07-22T04:27:53;20.90;99.90
16174;DHT22;14031;50.158;8.626;2022-07-22T04:30:21;20.90;99.90
16174;DHT22;14031;50.158;8.626;2022-07-22T04:32:48;21.00;99.90
16174;DHT22;14031;50.158;8.626;2022-07-22T04:35:15;21.00;99.90
16174;DHT22;14031;50.158;8.626;2022-07-22T04:37:42;21.00;99.90
16174;DHT22;14031;50.158;8.626;2022-07-22T04:40:10;21.10;99.90
16174;DHT22;14031;50.158;8.626;2022-07-22T04:42:37;21.10;99.90
16174;DHT22;14031;50.158;8.626;2022-07-22T04:45:04;21.10;99.90
16174;DHT22;14031;50.158;8.626;2022-07-22T04:47:33;21.10;99.90
16174;DHT22;14031;50.158;8.626;2022-07-22T04:49:59;21.10;99.90
16174;DHT22;14031;50.158;8.626;2022-07-22T04:52:26;21.20;99.90
16174;DHT22;14031;50.158;8.626;2022-07-22T04:54:53;21.20;99.90
16174;DHT22;14031;50.158;8.626;2022-07-22T04:57:25;21.20;99.90
16174;DHT22;14031;50.158;8.626;2022-07-22T04:59:52;21.20;99.90
16174;DHT22;14031;50.158;8.626;2022-07-22T05:02:19;21.20;99.90
16174;DHT22;14031;50.158;8.626;2022-07-22T05:04:47;21.20;99.90
16174;DHT22;14031;50.158;8.626;2022-07-22T05:07:14;21.30;99.90
16174;DHT22;14031;50.158;8.626;2022-07-22T05:09:41;21.30;99.90
16174;DHT22;14031;50.158;8.626;2022-07-22T05:12:08;21.40;99.90
16174;DHT22;14031;50.158;8.626;2022-07-22T05:14:35;21.40;99.90
16174;DHT22;14031;50.158;8.626;2022-07-22T05:17:01;21.40;99.90
16174;DHT22;14031;50.158;8.626;2022-07-22T05:19:28;21.40;99.90
16174;DHT22;14031;50.158;8.626;2022-07-22T05:21:57;21.40;99.90
16174;DHT22;14031;50.158;8.626;2022-07-22T05:24:23;21.40;99.90
16174;DHT22;14031;50.158;8.626;2022-07-22T05:26:50;21.50;99.90
16174;DHT22;14031;50.158;8.626;2022-07-22T05:29:19;21.50;99.90
16174;DHT22;14031;50.158;8.626;2022-07-22T05:31:46;21.50;99.90
16174;DHT22;14031;50.158;8.626;2022-07-22T05:34:13;21.50;99.90
16174;DHT22;14031;50.158;8.626;2022-07-22T05:36:40;21.50;99.90
16174;DHT22;14031;50.158;8.626;2022-07-22T05:39:08;21.50;99.90
16174;DHT22;14031;50.158;8.626;2022-07-22T05:41:35;21.50;99.90
16174;DHT22;14031;50.158;8.626;2022-07-22T05:44:03;21.50;99.90
16174;DHT22;14031;50.158;8.626;2022-07-22T05:46:30;21.60;99.90
16174;DHT22;14031;50.158;8.626;2022-07-22T05:48:57;21.60;99.90
16174;DHT22;14031;50.158;8.626;2022-07-22T05:51:24;21.50;99.90
16174;DHT22;14031;50.158;8.626;2022-07-22T05:53:51;21.50;99.90
16174;DHT22;14031;50.158;8.626;2022-07-22T05:56:19;21.50;99.90
16174;DHT22;14031;50.158;8.626;2022-07-22T05:58:46;21.50;99.90
16174;DHT22;14031;50.158;8.626;2022-07-22T06:01:13;21.40;99.90
16174;DHT22;14031;50.158;8.626;2022-07-22T06:03:40;21.50;99.90
16174;DHT22;14031;50.158;8.626;2022-07-22T06:06:07;21.50;99.90
16174;DHT22;14031;50.158;8.626;2022-07-22T06:08:35;21.40;99.90
16174;DHT22;14031;50.158;8.626;2022-07-22T06:11:02;21.60;99.90
16174;DHT22;14031;50.158;8.626;2022-07-22T06:13:30;21.60;99.90
16174;DHT22;14031;50.158;8.626;2022-07-22T06:15:58;21.70;99.90
16174;DHT22;14031;50.158;8.626;2022-07-22T06:18:25;21.60;99.90
16174;DHT22;14031;50.158;8.626;2022-07-22T06:20:52;21.80;99.90
16174;DHT22;14031;50.158;8.626;2022-07-22T06:23:19;21.80;99.90
16174;DHT22;14031;50.158;8.626;2022-07-22T06:25:46;21.80;99.90
16174;DHT22;14031;50.158;8.626;2022-07-22T06:28:12;21.90;99.90
16174;DHT22;14031;50.158;8.626;2022-07-22T06:30:41;21.90;99.90
16174;DHT22;14031;50.158;8.626;2022-07-22T06:33:08;21.90;99.90
16174;DHT22;14031;50.158;8.626;2022-07-22T06:35:37;21.90;99.90
16174;DHT22;14031;50.158;8.626;2022-07-22T06:38:04;22.00;99.90
16174;DHT22;14031;50.158;8.626;2022-07-22T06:40:31;22.00;99.90
16174;DHT22;14031;50.158;8.626;2022-07-22T06:42:58;22.00;99.90
16174;DHT22;14031;50.158;8.626;2022-07-22T06:45:25;22.00;99.90
16174;DHT22;14031;50.158;8.626;2022-07-22T06:47:53;22.10;99.90
16174;DHT22;14031;50.158;8.626;2022-07-22T06:50:20;22.10;99.90
16174;DHT22;14031;50.158;8.626;2022-07-22T06:52:47;22.20;99.90
16174;DHT22;14031;50.158;8.626;2022-07-22T06:55:14;22.30;99.90
16174;DHT22;14031;50.158;8.626;2022-07-22T06:57:41;22.30;99.90
16174;DHT22;14031;50.158;8.626;2022-07-22T07:00:09;22.40;99.90
16174;DHT22;14031;50.158;8.626;2022-07-22T07:02:36;22.40;99.90
16174;DHT22;14031;50.158;8.626;2022-07-22T07:05:05;22.40;99.90
16174;DHT22;14031;50.158;8.626;2022-07-22T07:07:32;22.50;99.90
16174;DHT22;14031;50.158;8.626;2022-07-22T07:09:59;22.50;99.90
16174;DHT22;14031;50.158;8.626;2022-07-22T07:12:26;22.60;99.90
16174;DHT22;14031;50.158;8.626;2022-07-22T07:14:53;22.70;99.90
16174;DHT22;14031;50.158;8.626;2022-07-22T07:17:20;22.80;99.90
16174;DHT22;14031;50.158;8.626;2022-07-22T07:19:46;22.90;99.90
16174;DHT22;14031;50.158;8.626;2022-07-22T07:22:15;23.00;99.90
16174;DHT22;14031;50.158;8.626;2022-07-22T07:24:42;22.90;99.90
16174;DHT22;14031;50.158;8.626;2022-07-22T07:27:08;23.00;99.90
16174;DHT22;14031;50.158;8.626;2022-07-22T07:29:35;23.00;99.90
16174;DHT22;14031;50.158;8.626;2022-07-22T07:32:03;23.00;99.90
16174;DHT22;14031;50.158;8.626;2022-07-22T07:34:30;23.10;99.90
16174;DHT22;14031;50.158;8.626;2022-07-22T07:36:56;23.20;99.90
16174;DHT22;14031;50.158;8.626;2022-07-22T07:39:25;23.30;99.90
16174;DHT22;14031;50.158;8.626;2022-07-22T07:41:52;23.30;99.90
16174;DHT22;14031;50.158;8.626;2022-07-22T07:44:19;23.40;99.90
16174;DHT22;14031;50.158;8.626;2022-07-22T07:46:46;23.50;99.90
16174;DHT22;14031;50.158;8.626;2022-07-22T07:49:14;23.60;99.90
16174;DHT22;14031;50.158;8.626;2022-07-22T07:51:41;23.60;99.90
16174;DHT22;14031;50.158;8.626;2022-07-22T07:54:08;23.60;99.90
16174;DHT22;14031;50.158;8.626;2022-07-22T07:56:36;23.60;99.90
16174;DHT22;14031;50.158;8.626;2022-07-22T07:59:03;23.60;99.90
16174;DHT22;14031;50.158;8.626;2022-07-22T08:01:30;23.50;99.90
16174;DHT22;14031;50.158;8.626;2022-07-22T08:03:57;23.40;99.90
16174;DHT22;14031;50.158;8.626;2022-07-22T08:06:24;23.40;99.90
16174;DHT22;14031;50.158;8.626;2022-07-22T08:08:51;23.50;99.90
16174;DHT22;14031;50.158;8.626;2022-07-22T08:11:18;23.50;99.90
16174;DHT22;14031;50.158;8.626;2022-07-22T08:13:46;23.70;99.90
16174;DHT22;14031;50.158;8.626;2022-07-22T08:16:13;23.70;99.90
16174;DHT22;14031;50.158;8.626;2022-07-22T08:18:40;23.90;99.90
16174;DHT22;14031;50.158;8.626;2022-07-22T08:21:07;23.90;99.90
16174;DHT22;14031;50.158;8.626;2022-07-22T08:23:34;23.80;99.90
16174;DHT22;14031;50.158;8.626;2022-07-22T08:26:02;23.90;99.90
16174;DHT22;14031;50.158;8.626;2022-07-22T08:28:29;23.90;99.90
16174;DHT22;14031;50.158;8.626;2022-07-22T08:30:57;24.00;99.90
16174;DHT22;14031;50.158;8.626;2022-07-22T08:33:24;24.00;99.90
16174;DHT22;14031;50.158;8.626;2022-07-22T08:35:51;24.00;99.90
16174;DHT22;14031;50.158;8.626;2022-07-22T08:38:18;24.10;99.90
16174;DHT22;14031;50.158;8.626;2022-07-22T08:40:44;24.10;99.90
16174;DHT22;14031;50.158;8.626;2022-07-22T08:43:11;24.10;99.90
16174;DHT22;14031;50.158;8.626;2022-07-22T08:45:39;24.10;99.90
16174;DHT22;14031;50.158;8.626;2022-07-22T08:48:08;24.20;99.90
16174;DHT22;14031;50.158;8.626;2022-07-22T08:50:35;24.30;99.90
16174;DHT22;14031;50.158;8.626;2022-07-22T08:53:02;24.40;99.90
16174;DHT22;14031;50.158;8.626;2022-07-22T08:55:29;24.50;99.90
16174;DHT22;14031;50.158;8.626;2022-07-22T08:57:56;24.50;99.90
16174;DHT22;14031;50.158;8.626;2022-07-22T09:00:23;24.60;99.90
16174;DHT22;14031;50.158;8.626;2022-07-22T09:02:50;24.60;99.90
16174;DHT22;14031;50.158;8.626;2022-07-22T09:05:18;24.70;99.90
16174;DHT22;14031;50.158;8.626;2022-07-22T09:07:45;24.70;99.90
16174;DHT22;14031;50.158;8.626;2022-07-22T09:10:15;24.80;99.90
16174;DHT22;14031;50.158;8.626;2022-07-22T09:12:54;24.80;99.90
16174;DHT22;14031;50.158;8.626;2022-07-22T09:15:27;24.90;99.90
16174;DHT22;14031;50.158;8.626;2022-07-22T09:17:54;25.00;99.90
16174;DHT22;14031;50.158;8.626;2022-07-22T09:20:23;25.10;99.90
16174;DHT22;14031;50.158;8.626;2022-07-22T09:22:51;25.10;99.90
16174;DHT22;14031;50.158;8.626;2022-07-22T09:25:20;25.10;99.90
16174;DHT22;14031;50.158;8.626;2022-07-22T09:27:49;25.10;99.90
16174;DHT22;14031;50.158;8.626;2022-07-22T09:30:17;25.20;99.90
16174;DHT22;14031;50.158;8.626;2022-07-22T09:32:45;25.30;99.90
16174;DHT22;14031;50.158;8.626;2022-07-22T09:35:12;25.40;99.90
16174;DHT22;14031;50.158;8.626;2022-07-22T09:37:50;25.60;99.90
16174;DHT22;14031;50.158;8.626;2022-07-22T09:40:19;25.80;99.90
16174;DHT22;14031;50.158;8.626;2022-07-22T09:42:48;25.90;99.90
16174;DHT22;14031;50.158;8.626;2022-07-22T09:45:16;26.00;99.90
16174;DHT22;14031;50.158;8.626;2022-07-22T09:47:44;26.00;99.90
16174;DHT22;14031;50.158;8.626;2022-07-22T09:50:19;26.00;99.90
16174;DHT22;14031;50.158;8.626;2022-07-22T09:52:48;26.00;99.90
16174;DHT22;14031;50.158;8.626;2022-07-22T09:55:16;26.00;99.90
16174;DHT22;14031;50.158;8.626;2022-07-22T09:57:43;25.90;99.90
16174;DHT22;14031;50.158;8.626;2022-07-22T10:00:11;26.00;99.90
16174;DHT22;14031;50.158;8.626;2022-07-22T10:02:41;26.10;99.90
16174;DHT22;14031;50.158;8.626;2022-07-22T10:05:12;26.10;99.90
16174;DHT22;14031;50.158;8.626;2022-07-22T10:07:40;26.20;99.90
16174;DHT22;14031;50.158;8.626;2022-07-22T10:10:11;26.20;99.90
16174;DHT22;14031;50.158;8.626;2022-07-22T10:12:38;26.30;99.90
16174;DHT22;14031;50.158;8.626;2022-07-22T10:15:06;26.40;99.90
16174;DHT22;14031;50.158;8.626;2022-07-22T10:17:35;26.50;99.90
16174;DHT22;14031;50.158;8.626;2022-07-22T10:20:03;26.50;99.90
16174;DHT22;14031;50.158;8.626;2022-07-22T10:22:53;26.70;99.90
16174;DHT22;14031;50.158;8.626;2022-07-22T10:25:24;26.80;99.90
16174;DHT22;14031;50.158;8.626;2022-07-22T10:27:54;26.90;99.90
16174;DHT22;14031;50.158;8.626;2022-07-22T10:30:23;27.00;99.90
16174;DHT22;14031;50.158;8.626;2022-07-22T10:33:08;27.10;99.90
16174;DHT22;14031;50.158;8.626;2022-07-22T10:35:38;27.30;99.90
16174;DHT22;14031;50.158;8.626;2022-07-22T10:38:18;27.40;99.90
16174;DHT22;14031;50.158;8.626;2022-07-22T10:40:53;27.50;99.90
16174;DHT22;14031;50.158;8.626;2022-07-22T10:43:21;27.60;99.90
16174;DHT22;14031;50.158;8.626;2022-07-22T10:45:51;27.70;99.90
16174;DHT22;14031;50.158;8.626;2022-07-22T10:51:11;27.90;99.90
16174;DHT22;14031;50.158;8.626;2022-07-22T10:53:44;28.00;99.90
16174;DHT22;14031;50.158;8.626;2022-07-22T10:56:24;28.10;99.90
16174;DHT22;14031;50.158;8.626;2022-07-22T10:58:57;28.10;99.90
16174;DHT22;14031;50.158;8.626;2022-07-22T11:01:28;28.20;99.90
16174;DHT22;14031;50.158;8.626;2022-07-22T11:03:56;28.20;99.90
16174;DHT22;14031;50.158;8.626;2022-07-22T11:06:33;28.30;99.90
16174;DHT22;14031;50.158;8.626;2022-07-22T11:09:02;28.40;99.90
16174;DHT22;14031;50.158;8.626;2022-07-22T11:11:36;28.60;99.90
16174;DHT22;14031;50.158;8.626;2022-07-22T11:14:16;28.70;99.90
16174;DHT22;14031;50.158;8.626;2022-07-22T11:16:44;28.80;99.90
16174;DHT22;14031;50.158;8.626;2022-07-22T11:19:12;28.90;99.90
16174;DHT22;14031;50.158;8.626;2022-07-22T11:21:39;28.90;99.90
16174;DHT22;14031;50.158;8.626;2022-07-22T11:24:07;29.00;99.90
16174;DHT22;14031;50.158;8.626;2022-07-22T11:26:40;29.10;99.90
16174;DHT22;14031;50.158;8.626;2022-07-22T11:29:08;29.20;99.90
16174;DHT22;14031;50.158;8.626;2022-07-22T11:31:36;29.40;99.90
16174;DHT22;14031;50.158;8.626;2022-07-22T11:34:08;29.60;99.90
16174;DHT22;14031;50.158;8.626;2022-07-22T11:36:37;29.60;99.90
16174;DHT22;14031;50.158;8.626;2022-07-22T11:39:04;29.80;99.90
16174;DHT22;14031;50.158;8.626;2022-07-22T11:41:32;29.90;99.90
16174;DHT22;14031;50.158;8.626;2022-07-22T11:44:01;30.10;99.90
16174;DHT22;14031;50.158;8.626;2022-07-22T11:46:28;30.10;99.90
16174;DHT22;14031;50.158;8.626;2022-07-22T11:48:55;30.20;99.90
16174;DHT22;14031;50.158;8.626;2022-07-22T11:51:28;30.40;99.90
16174;DHT22;14031;50.158;8.626;2022-07-22T11:53:56;30.60;99.90
16174;DHT22;14031;50.158;8.626;2022-07-22T11:56:23;30.80;99.90
16174;DHT22;14031;50.158;8.626;2022-07-22T11:58:51;30.80;99.90
16174;DHT22;14031;50.158;8.626;2022-07-22T12:01:22;30.90;99.90
16174;DHT22;14031;50.158;8.626;2022-07-22T12:03:51;30.90;99.90
16174;DHT22;14031;50.158;8.626;2022-07-22T12:06:20;30.90;99.90
16174;DHT22;14031;50.158;8.626;2022-07-22T12:08:48;30.90;99.90
16174;DHT22;14031;50.158;8.626;2022-07-22T12:11:18;30.90;99.90
16174;DHT22;14031;50.158;8.626;2022-07-22T12:13:46;30.80;99.90
16174;DHT22;14031;50.158;8.626;2022-07-22T12:16:23;30.80;99.90
16174;DHT22;14031;50.158;8.626;2022-07-22T12:18:52;30.90;99.90
16174;DHT22;14031;50.158;8.626;2022-07-22T12:21:19;31.00;99.90
16174;DHT22;14031;50.158;8.626;2022-07-22T12:23:52;31.20;99.90
16174;DHT22;14031;50.158;8.626;2022-07-22T12:26:19;31.30;97.90
16174;DHT22;14031;50.158;8.626;2022-07-22T12:28:46;31.30;97.10
16174;DHT22;14031;50.158;8.626;2022-07-22T12:31:13;31.40;97.50
16174;DHT22;14031;50.158;8.626;2022-07-22T12:33:48;31.60;98.60
16174;DHT22;14031;50.158;8.626;2022-07-22T12:36:15;31.80;97.60
16174;DHT22;14031;50.158;8.626;2022-07-22T12:38:42;31.90;97.60
16174;DHT22;14031;50.158;8.626;2022-07-22T12:41:23;32.00;98.10
16174;DHT22;14031;50.158;8.626;2022-07-22T12:43:50;32.10;97.40
16174;DHT22;14031;50.158;8.626;2022-07-22T12:46:17;32.20;97.70
16174;DHT22;14031;50.158;8.626;2022-07-22T12:48:50;32.40;98.40
16174;DHT22;14031;50.158;8.626;2022-07-22T12:51:18;32.50;97.30
16174;DHT22;14031;50.158;8.626;2022-07-22T12:53:45;32.70;97.90
16174;DHT22;14031;50.158;8.626;2022-07-22T12:56:12;32.80;96.80
16174;DHT22;14031;50.158;8.626;2022-07-22T12:58:38;32.90;94.90
16174;DHT22;14031;50.158;8.626;2022-07-22T13:01:07;32.90;95.50
16174;DHT22;14031;50.158;8.626;2022-07-22T13:03:34;33.00;95.70
16174;DHT22;14031;50.158;8.626;2022-07-22T13:06:04;33.00;96.00
16174;DHT22;14031;50.158;8.626;2022-07-22T13:08:32;33.00;94.30
16174;DHT22;14031;50.158;8.626;2022-07-22T13:11:00;33.00;95.20
16174;DHT22;14031;50.158;8.626;2022-07-22T13:13:26;33.20;95.10
16174;DHT22;14031;50.158;8.626;2022-07-22T13:15:53;33.30;95.60
16174;DHT22;14031;50.158;8.626;2022-07-22T13:18:21;33.50;94.50
16174;DHT22;14031;50.158;8.626;2022-07-22T13:20:47;33.40;93.20
16174;DHT22;14031;50.158;8.626;2022-07-22T13:23:16;33.40;93.60
16174;DHT22;14031;50.158;8.626;2022-07-22T13:25:44;33.50;93.50
16174;DHT22;14031;50.158;8.626;2022-07-22T13:28:11;33.60;92.60
16174;DHT22;14031;50.158;8.626;2022-07-22T13:30:38;33.60;92.40
16174;DHT22;14031;50.158;8.626;2022-07-22T13:33:05;33.70;92.20
16174;DHT22;14031;50.158;8.626;2022-07-22T13:35:32;33.90;92.30
16174;DHT22;14031;50.158;8.626;2022-07-22T13:37:59;34.00;91.80
16174;DHT22;14031;50.158;8.626;2022-07-22T13:40:27;34.10;91.20
16174;DHT22;14031;50.158;8.626;2022-07-22T13:42:54;34.00;91.40
16174;DHT22;14031;50.158;8.626;2022-07-22T13:45:21;33.90;91.60
16174;DHT22;14031;50.158;8.626;2022-07-22T13:47:48;33.80;90.50
16174;DHT22;14031;50.158;8.626;2022-07-22T13:50:15;33.80;90.50
16174;DHT22;14031;50.158;8.626;2022-07-22T13:52:42;33.90;90.60
16174;DHT22;14031;50.158;8.626;2022-07-22T13:55:11;33.90;90.30
16174;DHT22;14031;50.158;8.626;2022-07-22T13:57:40;34.10;91.90
16174;DHT22;14031;50.158;8.626;2022-07-22T14:00:09;34.50;91.50
16174;DHT22;14031;50.158;8.626;2022-07-22T14:02:37;34.90;90.50
16174;DHT22;14031;50.158;8.626;2022-07-22T14:05:04;35.30;90.30
16174;DHT22;14031;50.158;8.626;2022-07-22T14:07:31;35.60;88.30
16174;DHT22;14031;50.158;8.626;2022-07-22T14:09:58;35.80;89.80
16174;DHT22;14031;50.158;8.626;2022-07-22T14:12:25;36.00;87.80
16174;DHT22;14031;50.158;8.626;2022-07-22T14:14:54;36.30;87.70
16174;DHT22;14031;50.158;8.626;2022-07-22T14:17:20;36.50;88.40
16174;DHT22;14031;50.158;8.626;2022-07-22T14:19:47;36.80;86.50
16174;DHT22;14031;50.158;8.626;2022-07-22T14:22:14;37.10;85.20
16174;DHT22;14031;50.158;8.626;2022-07-22T14:24:41;37.40;84.30
16174;DHT22;14031;50.158;8.626;2022-07-22T14:27:12;37.40;81.30
16174;DHT22;14031;50.158;8.626;2022-07-22T14:29:43;37.50;81.80
16174;DHT22;14031;50.158;8.626;2022-07-22T14:32:11;37.60;81.50
16174;DHT22;14031;50.158;8.626;2022-07-22T14:34:38;37.50;82.00
16174;DHT22;14031;50.158;8.626;2022-07-22T14:37:05;37.40;79.40
16174;DHT22;14031;50.158;8.626;2022-07-22T14:39:32;37.40;77.30
16174;DHT22;14031;50.158;8.626;2022-07-22T14:42:00;37.40;77.50
16174;DHT22;14031;50.158;8.626;2022-07-22T14:44:28;37.10;78.60
16174;DHT22;14031;50.158;8.626;2022-07-22T14:46:55;37.00;79.40
16174;DHT22;14031;50.158;8.626;2022-07-22T14:49:23;37.00;80.90
16174;DHT22;14031;50.158;8.626;2022-07-22T14:51:50;37.10;78.60
16174;DHT22;14031;50.158;8.626;2022-07-22T14:54:17;36.90;79.40
16174;DHT22;14031;50.158;8.626;2022-07-22T14:56:45;37.00;78.70
16174;DHT22;14031;50.158;8.626;2022-07-22T14:59:12;37.00;78.50
16174;DHT22;14031;50.158;8.626;2022-07-22T15:01:39;37.30;77.40
16174;DHT22;14031;50.158;8.626;2022-07-22T15:04:05;37.70;76.10
16174;DHT22;14031;50.158;8.626;2022-07-22T15:06:34;38.00;77.30
16174;DHT22;14031;50.158;8.626;2022-07-22T15:09:01;38.40;76.80
16174;DHT22;14031;50.158;8.626;2022-07-22T15:11:28;38.90;77.40
16174;DHT22;14031;50.158;8.626;2022-07-22T15:13:54;39.20;75.50
16174;DHT22;14031;50.158;8.626;2022-07-22T15:16:21;39.40;75.20
16174;DHT22;14031;50.158;8.626;2022-07-22T15:18:48;39.60;73.90
16174;DHT22;14031;50.158;8.626;2022-07-22T15:21:15;39.70;72.20
16174;DHT22;14031;50.158;8.626;2022-07-22T15:23:44;39.80;72.10
16174;DHT22;14031;50.158;8.626;2022-07-22T15:26:12;39.80;72.20
16174;DHT22;14031;50.158;8.626;2022-07-22T15:28:39;39.80;71.10
16174;DHT22;14031;50.158;8.626;2022-07-22T15:31:06;39.80;69.10
16174;DHT22;14031;50.158;8.626;2022-07-22T15:33:33;39.70;69.30
16174;DHT22;14031;50.158;8.626;2022-07-22T15:36:00;39.80;69.90
16174;DHT22;14031;50.158;8.626;2022-07-22T15:38:27;40.00;68.20